Peoa, UT (84061)

1:34 PM MDT on September 20, 2014 (GMT -0600)
Weber Canyon Road | Change Station
CLOSE
Current Station
Personal Weather Station
Location: Oakley, UT
Elevation: 6475 ft
Nearby Weather Stations

Elev 6475 ft 40.72 °N, 111.29 °W | Updated 5 seconds ago

Clear
Clear
75.0 °F
Feels Like 77 °F
N
2.0
Wind Variable Wind from WNW
Gusts 11.0 mph

Today
High -- | Low -- °F
--% Chance of Precip.
Yesterday
High -- | Low -- °F
Precip. -- in
7:10 AM 7:25 PM
Waning Crescent, 11% visible
Pressure 30.23 in
Visibility 10.0 miles
Clouds Clear
Heat Index 77 °F
Dew Point 42 °F
Humidity 30%
Rainfall 0.00 in
Snow Depth 1 in , 0 in , 0 in
UV 8 out of 12
Pollen 5.30 out of 12
Air Quality Not available.
Flu Activity Not available.
METAR K36U 201910Z AUTO 00000KT 10SM CLR 25/05 A3023 RMK AO2

More Conditions Fewer Conditions

Pressure 30.23 in
Visibility 10.0 miles
Clouds Clear
Heat Index 77 °F
Dew Point 42 °F
Humidity 30%
Rainfall 0.00 in
Snow Depth 1 in , 0 in , 0 in
UV 8 out of 12
Pollen 5.30 out of 12
Air Quality Not available.
Flu Activity Not available.
METAR K36U 201910Z AUTO 00000KT 10SM CLR 25/05 A3023 RMK AO2

More Conditions Fewer Conditions

10-Day Weather Forecast

Almanac

Astronomy

Sep. 20, 2014 Rise Set
Actual Time 7:10 AM MDT 7:25 PM MDT
Civil Twilight 6:43 AM MDT 7:53 PM MDT
Nautical Twilight 6:11 AM MDT 8:25 PM MDT
Astronomical Twilight 5:38 AM MDT 8:57 PM MDT
Moon 3:52 AM MDT 5:31 PM MDT
Length of Visible Light 13h 09m
Length of Day
12h 14m
Tomorrow will be 2m 40s shorter.
Waning Crescent, 11% of the Moon is Illuminated
Today
Waning Crescent
Sep 24
New
Oct 1
First Quarter
Oct 8
Full
Oct 15
Last Quarter

Today's Extremes

State Highs State Lows

Community

WunderPhotos

Upload Photos

1,754,925 photos uploaded!

WunderBlogs® & News

Nearby

Snow Depth

Station Depth Elevation
Lakefork #1 1 in 10100 ft
Trout Creek 0 in 9400 ft
Trial Lake 1 in 9960 ft
Mosby Mountain 0 in 9500 ft
Long Valley Jct 0 in 7360 ft

Earthquake Activity

City Distance Mag. Time & Date
No recent earthquake activity has been reported nearby.
Minimum magnitude displayed is 2.5.

Coastal Water Temperatures

Place Temperature
No Stations Reporting

Nearby Weather Stations